sensor_id;sensor_type;location;lat;lon;timestamp;P1;durP1;ratioP1;P2;durP2;ratioP2
29934;SDS011;19905;53.370;-6.314;2023-02-11T00:01:39;8.30;;;2.83;;
29934;SDS011;19905;53.370;-6.314;2023-02-11T00:04:09;5.45;;;2.85;;
29934;SDS011;19905;53.370;-6.314;2023-02-11T00:06:38;7.35;;;3.00;;
29934;SDS011;19905;53.370;-6.314;2023-02-11T00:09:08;11.52;;;3.00;;
29934;SDS011;19905;53.370;-6.314;2023-02-11T00:11:38;6.70;;;3.65;;
29934;SDS011;19905;53.370;-6.314;2023-02-11T00:14:08;8.40;;;2.95;;
29934;SDS011;19905;53.370;-6.314;2023-02-11T00:16:38;12.35;;;3.80;;
29934;SDS011;19905;53.370;-6.314;2023-02-11T00:19:08;9.82;;;3.53;;
29934;SDS011;19905;53.370;-6.314;2023-02-11T00:21:36;6.57;;;3.78;;
29934;SDS011;19905;53.370;-6.314;2023-02-11T00:24:05;9.52;;;4.40;;
29934;SDS011;19905;53.370;-6.314;2023-02-11T00:26:35;9.15;;;4.55;;
29934;SDS011;19905;53.370;-6.314;2023-02-11T00:29:04;13.27;;;4.53;;
29934;SDS011;19905;53.370;-6.314;2023-02-11T00:31:34;12.07;;;4.72;;
29934;SDS011;19905;53.370;-6.314;2023-02-11T00:34:05;13.50;;;4.28;;
29934;SDS011;19905;53.370;-6.314;2023-02-11T00:36:34;9.73;;;4.18;;
29934;SDS011;19905;53.370;-6.314;2023-02-11T00:39:02;15.13;;;3.95;;
29934;SDS011;19905;53.370;-6.314;2023-02-11T00:41:32;11.73;;;3.90;;
29934;SDS011;19905;53.370;-6.314;2023-02-11T00:44:02;12.40;;;3.80;;
29934;SDS011;19905;53.370;-6.314;2023-02-11T00:46:31;11.32;;;4.10;;
29934;SDS011;19905;53.370;-6.314;2023-02-11T00:49:01;10.88;;;4.10;;
29934;SDS011;19905;53.370;-6.314;2023-02-11T00:51:30;12.75;;;4.00;;
29934;SDS011;19905;53.370;-6.314;2023-02-11T00:53:58;8.25;;;3.90;;
29934;SDS011;19905;53.370;-6.314;2023-02-11T00:56:33;13.45;;;4.15;;
29934;SDS011;19905;53.370;-6.314;2023-02-11T00:59:01;9.20;;;4.22;;
29934;SDS011;19905;53.370;-6.314;2023-02-11T01:01:30;8.73;;;4.20;;
29934;SDS011;19905;53.370;-6.314;2023-02-11T01:04:00;13.15;;;4.53;;
29934;SDS011;19905;53.370;-6.314;2023-02-11T01:06:31;11.45;;;4.60;;
29934;SDS011;19905;53.370;-6.314;2023-02-11T01:09:00;9.98;;;4.70;;
29934;SDS011;19905;53.370;-6.314;2023-02-11T01:11:28;13.57;;;5.65;;
29934;SDS011;19905;53.370;-6.314;2023-02-11T01:13:57;11.75;;;5.30;;
29934;SDS011;19905;53.370;-6.314;2023-02-11T01:16:26;12.18;;;6.13;;
29934;SDS011;19905;53.370;-6.314;2023-02-11T01:18:55;16.35;;;7.00;;
29934;SDS011;19905;53.370;-6.314;2023-02-11T01:21:26;12.15;;;5.75;;
29934;SDS011;19905;53.370;-6.314;2023-02-11T01:23:55;16.02;;;6.88;;
29934;SDS011;19905;53.370;-6.314;2023-02-11T01:26:23;12.82;;;5.82;;
29934;SDS011;19905;53.370;-6.314;2023-02-11T01:28:53;15.02;;;5.32;;
29934;SDS011;19905;53.370;-6.314;2023-02-11T01:31:23;13.90;;;5.50;;
29934;SDS011;19905;53.370;-6.314;2023-02-11T01:33:53;12.48;;;5.10;;
29934;SDS011;19905;53.370;-6.314;2023-02-11T01:36:22;10.23;;;5.50;;
29934;SDS011;19905;53.370;-6.314;2023-02-11T01:38:52;10.18;;;5.28;;
29934;SDS011;19905;53.370;-6.314;2023-02-11T01:41:20;14.57;;;5.60;;
29934;SDS011;19905;53.370;-6.314;2023-02-11T01:43:52;11.32;;;5.85;;
29934;SDS011;19905;53.370;-6.314;2023-02-11T01:46:27;14.68;;;4.60;;
29934;SDS011;19905;53.370;-6.314;2023-02-11T01:49:00;10.57;;;5.18;;
29934;SDS011;19905;53.370;-6.314;2023-02-11T01:51:35;12.20;;;4.88;;
29934;SDS011;19905;53.370;-6.314;2023-02-11T01:54:11;7.78;;;4.03;;
29934;SDS011;19905;53.370;-6.314;2023-02-11T01:57:00;12.00;;;4.10;;
29934;SDS011;19905;53.370;-6.314;2023-02-11T01:59:58;12.07;;;4.28;;
29934;SDS011;19905;53.370;-6.314;2023-02-11T02:02:35;9.68;;;3.97;;
29934;SDS011;19905;53.370;-6.314;2023-02-11T02:05:14;10.57;;;4.38;;
29934;SDS011;19905;53.370;-6.314;2023-02-11T02:07:52;10.45;;;4.65;;
29934;SDS011;19905;53.370;-6.314;2023-02-11T02:10:28;7.45;;;3.72;;
29934;SDS011;19905;53.370;-6.314;2023-02-11T02:13:02;9.93;;;4.20;;
29934;SDS011;19905;53.370;-6.314;2023-02-11T02:15:31;9.13;;;4.15;;
29934;SDS011;19905;53.370;-6.314;2023-02-11T02:18:02;8.13;;;3.88;;
29934;SDS011;19905;53.370;-6.314;2023-02-11T02:23:45;10.38;;;3.72;;
29934;SDS011;19905;53.370;-6.314;2023-02-11T02:26:37;9.70;;;3.90;;
29934;SDS011;19905;53.370;-6.314;2023-02-11T02:29:30;9.10;;;3.53;;
29934;SDS011;19905;53.370;-6.314;2023-02-11T02:32:23;9.32;;;3.85;;
29934;SDS011;19905;53.370;-6.314;2023-02-11T02:35:09;7.82;;;4.05;;
29934;SDS011;19905;53.370;-6.314;2023-02-11T02:37:46;9.27;;;4.03;;
29934;SDS011;19905;53.370;-6.314;2023-02-11T02:40:19;8.20;;;3.47;;
29934;SDS011;19905;53.370;-6.314;2023-02-11T02:42:52;8.80;;;3.63;;
29934;SDS011;19905;53.370;-6.314;2023-02-11T02:45:23;9.20;;;3.72;;
29934;SDS011;19905;53.370;-6.314;2023-02-11T02:47:53;10.60;;;4.30;;
29934;SDS011;19905;53.370;-6.314;2023-02-11T02:50:23;6.65;;;3.40;;
29934;SDS011;19905;53.370;-6.314;2023-02-11T02:53:00;11.82;;;3.50;;
29934;SDS011;19905;53.370;-6.314;2023-02-11T02:55:44;8.48;;;3.30;;
29934;SDS011;19905;53.370;-6.314;2023-02-11T03:01:33;8.07;;;3.60;;
29934;SDS011;19905;53.370;-6.314;2023-02-11T03:04:10;8.15;;;3.03;;
29934;SDS011;19905;53.370;-6.314;2023-02-11T03:06:47;8.75;;;3.17;;
29934;SDS011;19905;53.370;-6.314;2023-02-11T03:09:25;7.22;;;3.30;;
29934;SDS011;19905;53.370;-6.314;2023-02-11T03:11:59;9.70;;;3.30;;
29934;SDS011;19905;53.370;-6.314;2023-02-11T03:14:29;6.88;;;3.50;;
29934;SDS011;19905;53.370;-6.314;2023-02-11T03:17:00;9.77;;;3.95;;
29934;SDS011;19905;53.370;-6.314;2023-02-11T03:19:34;11.98;;;4.00;;
29934;SDS011;19905;53.370;-6.314;2023-02-11T03:22:06;10.00;;;3.85;;
29934;SDS011;19905;53.370;-6.314;2023-02-11T03:24:39;8.05;;;4.68;;
29934;SDS011;19905;53.370;-6.314;2023-02-11T03:27:09;9.98;;;4.32;;
29934;SDS011;19905;53.370;-6.314;2023-02-11T03:29:50;13.73;;;4.80;;
29934;SDS011;19905;53.370;-6.314;2023-02-11T03:32:22;8.52;;;4.45;;
29934;SDS011;19905;53.370;-6.314;2023-02-11T03:34:56;10.52;;;4.68;;
29934;SDS011;19905;53.370;-6.314;2023-02-11T03:37:31;7.20;;;4.38;;
29934;SDS011;19905;53.370;-6.314;2023-02-11T03:40:06;9.63;;;4.50;;
29934;SDS011;19905;53.370;-6.314;2023-02-11T03:42:38;10.63;;;4.55;;
29934;SDS011;19905;53.370;-6.314;2023-02-11T03:45:11;9.05;;;3.92;;
29934;SDS011;19905;53.370;-6.314;2023-02-11T03:47:45;11.00;;;3.88;;
29934;SDS011;19905;53.370;-6.314;2023-02-11T03:50:19;11.35;;;3.88;;
29934;SDS011;19905;53.370;-6.314;2023-02-11T03:52:50;13.50;;;3.90;;
29934;SDS011;19905;53.370;-6.314;2023-02-11T03:55:20;8.80;;;3.78;;
29934;SDS011;19905;53.370;-6.314;2023-02-11T03:57:53;9.65;;;3.80;;
29934;SDS011;19905;53.370;-6.314;2023-02-11T04:00:28;8.98;;;3.67;;
29934;SDS011;19905;53.370;-6.314;2023-02-11T04:02:58;9.90;;;3.63;;
29934;SDS011;19905;53.370;-6.314;2023-02-11T04:05:28;7.88;;;3.30;;
29934;SDS011;19905;53.370;-6.314;2023-02-11T04:07:57;9.10;;;3.92;;
29934;SDS011;19905;53.370;-6.314;2023-02-11T04:10:27;7.93;;;3.88;;
29934;SDS011;19905;53.370;-6.314;2023-02-11T04:12:56;8.40;;;3.40;;
29934;SDS011;19905;53.370;-6.314;2023-02-11T04:15:24;10.13;;;3.50;;
29934;SDS011;19905;53.370;-6.314;2023-02-11T04:17:55;11.95;;;3.45;;
29934;SDS011;19905;53.370;-6.314;2023-02-11T04:20:24;7.72;;;3.20;;
29934;SDS011;19905;53.370;-6.314;2023-02-11T04:22:56;10.88;;;3.45;;
29934;SDS011;19905;53.370;-6.314;2023-02-11T04:25:24;8.48;;;3.33;;
29934;SDS011;19905;53.370;-6.314;2023-02-11T04:27:53;9.10;;;3.25;;
29934;SDS011;19905;53.370;-6.314;2023-02-11T04:30:21;6.90;;;3.13;;
29934;SDS011;19905;53.370;-6.314;2023-02-11T04:32:50;9.88;;;2.80;;
29934;SDS011;19905;53.370;-6.314;2023-02-11T04:35:20;8.52;;;3.00;;
29934;SDS011;19905;53.370;-6.314;2023-02-11T04:37:50;7.60;;;3.25;;
29934;SDS011;19905;53.370;-6.314;2023-02-11T04:40:20;6.70;;;3.13;;
29934;SDS011;19905;53.370;-6.314;2023-02-11T04:42:49;7.38;;;3.22;;
29934;SDS011;19905;53.370;-6.314;2023-02-11T04:45:18;10.07;;;3.63;;
29934;SDS011;19905;53.370;-6.314;2023-02-11T04:47:48;6.57;;;3.30;;
29934;SDS011;19905;53.370;-6.314;2023-02-11T04:50:17;6.88;;;3.33;;
29934;SDS011;19905;53.370;-6.314;2023-02-11T04:52:45;5.80;;;3.08;;
29934;SDS011;19905;53.370;-6.314;2023-02-11T04:55:14;4.82;;;3.08;;
29934;SDS011;19905;53.370;-6.314;2023-02-11T04:57:44;6.25;;;3.20;;
29934;SDS011;19905;53.370;-6.314;2023-02-11T05:00:17;6.57;;;2.97;;
29934;SDS011;19905;53.370;-6.314;2023-02-11T05:02:45;9.85;;;3.35;;
29934;SDS011;19905;53.370;-6.314;2023-02-11T05:05:14;6.82;;;3.40;;
29934;SDS011;19905;53.370;-6.314;2023-02-11T05:07:43;5.43;;;3.10;;
29934;SDS011;19905;53.370;-6.314;2023-02-11T05:10:11;7.47;;;3.30;;
29934;SDS011;19905;53.370;-6.314;2023-02-11T05:12:40;5.47;;;3.10;;
29934;SDS011;19905;53.370;-6.314;2023-02-11T05:15:11;7.30;;;3.05;;
29934;SDS011;19905;53.370;-6.314;2023-02-11T05:17:41;7.60;;;3.20;;
29934;SDS011;19905;53.370;-6.314;2023-02-11T05:20:10;5.78;;;3.10;;
29934;SDS011;19905;53.370;-6.314;2023-02-11T05:22:38;10.85;;;3.42;;
29934;SDS011;19905;53.370;-6.314;2023-02-11T05:25:08;7.30;;;3.22;;
29934;SDS011;19905;53.370;-6.314;2023-02-11T05:27:37;8.32;;;3.00;;
29934;SDS011;19905;53.370;-6.314;2023-02-11T05:30:07;4.07;;;2.80;;
29934;SDS011;19905;53.370;-6.314;2023-02-11T05:32:39;7.88;;;2.78;;
29934;SDS011;19905;53.370;-6.314;2023-02-11T05:35:08;6.88;;;3.10;;
29934;SDS011;19905;53.370;-6.314;2023-02-11T05:37:36;7.07;;;3.30;;
29934;SDS011;19905;53.370;-6.314;2023-02-11T05:40:05;7.63;;;2.72;;
29934;SDS011;19905;53.370;-6.314;2023-02-11T05:42:35;7.95;;;2.92;;
29934;SDS011;19905;53.370;-6.314;2023-02-11T05:45:04;6.75;;;2.70;;
29934;SDS011;19905;53.370;-6.314;2023-02-11T05:47:33;6.80;;;2.70;;
29934;SDS011;19905;53.370;-6.314;2023-02-11T05:50:03;6.13;;;3.03;;
29934;SDS011;19905;53.370;-6.314;2023-02-11T05:52:32;8.93;;;2.40;;
29934;SDS011;19905;53.370;-6.314;2023-02-11T05:55:01;9.30;;;2.20;;
29934;SDS011;19905;53.370;-6.314;2023-02-11T05:57:30;9.63;;;2.50;;
29934;SDS011;19905;53.370;-6.314;2023-02-11T05:59:58;6.90;;;2.10;;
29934;SDS011;19905;53.370;-6.314;2023-02-11T06:02:27;5.00;;;1.73;;
29934;SDS011;19905;53.370;-6.314;2023-02-11T06:04:56;5.00;;;1.98;;
29934;SDS011;19905;53.370;-6.314;2023-02-11T06:07:26;5.47;;;1.83;;
29934;SDS011;19905;53.370;-6.314;2023-02-11T06:09:54;6.97;;;2.30;;
29934;SDS011;19905;53.370;-6.314;2023-02-11T06:12:23;4.35;;;1.77;;
29934;SDS011;19905;53.370;-6.314;2023-02-11T06:14:52;6.70;;;1.70;;
29934;SDS011;19905;53.370;-6.314;2023-02-11T06:17:21;6.03;;;1.85;;
29934;SDS011;19905;53.370;-6.314;2023-02-11T06:19:51;4.95;;;1.60;;
29934;SDS011;19905;53.370;-6.314;2023-02-11T06:22:19;6.32;;;1.60;;
29934;SDS011;19905;53.370;-6.314;2023-02-11T06:24:50;3.90;;;1.52;;
29934;SDS011;19905;53.370;-6.314;2023-02-11T06:27:27;4.53;;;1.60;;
29934;SDS011;19905;53.370;-6.314;2023-02-11T06:29:56;6.50;;;1.38;;
29934;SDS011;19905;53.370;-6.314;2023-02-11T06:32:25;5.30;;;1.67;;
29934;SDS011;19905;53.370;-6.314;2023-02-11T06:35:11;5.25;;;1.38;;
29934;SDS011;19905;53.370;-6.314;2023-02-11T06:37:40;5.07;;;1.33;;
29934;SDS011;19905;53.370;-6.314;2023-02-11T06:40:11;3.95;;;1.27;;
29934;SDS011;19905;53.370;-6.314;2023-02-11T06:42:40;6.35;;;1.40;;
29934;SDS011;19905;53.370;-6.314;2023-02-11T06:45:08;3.58;;;1.10;;
29934;SDS011;19905;53.370;-6.314;2023-02-11T06:47:40;9.10;;;1.50;;
29934;SDS011;19905;53.370;-6.314;2023-02-11T06:50:10;6.45;;;1.40;;
29934;SDS011;19905;53.370;-6.314;2023-02-11T06:52:40;6.50;;;1.63;;
29934;SDS011;19905;53.370;-6.314;2023-02-11T06:55:12;4.93;;;1.40;;
29934;SDS011;19905;53.370;-6.314;2023-02-11T06:57:41;6.43;;;1.40;;
29934;SDS011;19905;53.370;-6.314;2023-02-11T07:00:10;6.30;;;1.58;;
29934;SDS011;19905;53.370;-6.314;2023-02-11T07:02:41;7.30;;;1.42;;
29934;SDS011;19905;53.370;-6.314;2023-02-11T07:05:10;8.55;;;1.92;;
29934;SDS011;19905;53.370;-6.314;2023-02-11T07:07:40;5.00;;;1.30;;
29934;SDS011;19905;53.370;-6.314;2023-02-11T07:10:08;7.88;;;1.27;;
29934;SDS011;19905;53.370;-6.314;2023-02-11T07:12:39;7.95;;;1.70;;
29934;SDS011;19905;53.370;-6.314;2023-02-11T07:15:10;6.57;;;1.27;;
29934;SDS011;19905;53.370;-6.314;2023-02-11T07:17:38;7.72;;;1.52;;
29934;SDS011;19905;53.370;-6.314;2023-02-11T07:20:07;7.97;;;1.50;;
29934;SDS011;19905;53.370;-6.314;2023-02-11T07:22:38;7.65;;;1.55;;
29934;SDS011;19905;53.370;-6.314;2023-02-11T07:25:08;5.18;;;1.55;;
29934;SDS011;19905;53.370;-6.314;2023-02-11T07:27:37;6.68;;;1.25;;
29934;SDS011;19905;53.370;-6.314;2023-02-11T07:30:08;3.28;;;1.30;;
29934;SDS011;19905;53.370;-6.314;2023-02-11T07:32:38;9.32;;;1.45;;
29934;SDS011;19905;53.370;-6.314;2023-02-11T07:35:06;3.28;;;1.17;;
29934;SDS011;19905;53.370;-6.314;2023-02-11T07:37:35;3.72;;;1.20;;
29934;SDS011;19905;53.370;-6.314;2023-02-11T07:40:04;5.75;;;1.20;;
29934;SDS011;19905;53.370;-6.314;2023-02-11T07:42:33;5.50;;;1.38;;
29934;SDS011;19905;53.370;-6.314;2023-02-11T07:45:02;4.63;;;1.20;;
29934;SDS011;19905;53.370;-6.314;2023-02-11T07:47:32;5.93;;;1.20;;
29934;SDS011;19905;53.370;-6.314;2023-02-11T07:50:01;5.68;;;1.30;;
29934;SDS011;19905;53.370;-6.314;2023-02-11T07:52:30;9.82;;;1.30;;
29934;SDS011;19905;53.370;-6.314;2023-02-11T07:54:58;4.03;;;1.50;;
29934;SDS011;19905;53.370;-6.314;2023-02-11T07:57:31;7.20;;;1.40;;
29934;SDS011;19905;53.370;-6.314;2023-02-11T08:00:00;4.72;;;1.30;;
29934;SDS011;19905;53.370;-6.314;2023-02-11T08:02:30;6.28;;;1.05;;
29934;SDS011;19905;53.370;-6.314;2023-02-11T08:05:00;5.80;;;1.25;;
29934;SDS011;19905;53.370;-6.314;2023-02-11T08:07:29;5.38;;;1.30;;
29934;SDS011;19905;53.370;-6.314;2023-02-11T08:09:57;9.48;;;2.20;;
29934;SDS011;19905;53.370;-6.314;2023-02-11T08:12:26;6.00;;;1.10;;
29934;SDS011;19905;53.370;-6.314;2023-02-11T08:14:55;5.28;;;1.17;;
29934;SDS011;19905;53.370;-6.314;2023-02-11T08:17:24;7.40;;;1.25;;
29934;SDS011;19905;53.370;-6.314;2023-02-11T08:19:53;6.88;;;1.13;;
29934;SDS011;19905;53.370;-6.314;2023-02-11T08:22:23;5.57;;;1.30;;
29934;SDS011;19905;53.370;-6.314;2023-02-11T08:24:51;9.70;;;1.40;;
29934;SDS011;19905;53.370;-6.314;2023-02-11T08:27:20;7.20;;;1.30;;
29934;SDS011;19905;53.370;-6.314;2023-02-11T08:29:49;5.28;;;1.15;;
29934;SDS011;19905;53.370;-6.314;2023-02-11T08:32:17;6.70;;;1.20;;
29934;SDS011;19905;53.370;-6.314;2023-02-11T08:34:49;7.60;;;1.50;;
29934;SDS011;19905;53.370;-6.314;2023-02-11T08:37:18;4.07;;;1.25;;
29934;SDS011;19905;53.370;-6.314;2023-02-11T08:39:50;6.95;;;1.20;;
29934;SDS011;19905;53.370;-6.314;2023-02-11T08:42:20;6.78;;;1.15;;
29934;SDS011;19905;53.370;-6.314;2023-02-11T08:44:56;5.88;;;1.27;;
29934;SDS011;19905;53.370;-6.314;2023-02-11T08:47:24;6.22;;;1.30;;
29934;SDS011;19905;53.370;-6.314;2023-02-11T08:49:53;6.57;;;1.27;;
29934;SDS011;19905;53.370;-6.314;2023-02-11T08:52:21;5.88;;;1.27;;
29934;SDS011;19905;53.370;-6.314;2023-02-11T08:54:51;10.13;;;1.90;;
29934;SDS011;19905;53.370;-6.314;2023-02-11T08:57:20;6.68;;;1.38;;
29934;SDS011;19905;53.370;-6.314;2023-02-11T08:59:49;8.35;;;1.25;;
29934;SDS011;19905;53.370;-6.314;2023-02-11T09:02:19;6.25;;;1.48;;
29934;SDS011;19905;53.370;-6.314;2023-02-11T09:04:47;8.75;;;1.65;;
29934;SDS011;19905;53.370;-6.314;2023-02-11T09:07:16;5.85;;;1.20;;
29934;SDS011;19905;53.370;-6.314;2023-02-11T09:09:45;8.02;;;1.02;;
29934;SDS011;19905;53.370;-6.314;2023-02-11T09:12:15;8.85;;;1.33;;
29934;SDS011;19905;53.370;-6.314;2023-02-11T09:14:44;6.05;;;1.20;;
29934;SDS011;19905;53.370;-6.314;2023-02-11T09:17:12;7.22;;;1.23;;
29934;SDS011;19905;53.370;-6.314;2023-02-11T09:19:40;6.35;;;1.35;;
29934;SDS011;19905;53.370;-6.314;2023-02-11T09:22:10;10.48;;;1.60;;
29934;SDS011;19905;53.370;-6.314;2023-02-11T09:24:38;5.72;;;1.13;;
29934;SDS011;19905;53.370;-6.314;2023-02-11T09:27:07;10.43;;;1.50;;
29934;SDS011;19905;53.370;-6.314;2023-02-11T09:29:37;6.70;;;1.70;;
29934;SDS011;19905;53.370;-6.314;2023-02-11T09:32:05;8.85;;;1.65;;
29934;SDS011;19905;53.370;-6.314;2023-02-11T09:34:35;5.72;;;1.30;;
29934;SDS011;19905;53.370;-6.314;2023-02-11T09:37:04;6.88;;;1.50;;
29934;SDS011;19905;53.370;-6.314;2023-02-11T09:39:33;6.60;;;1.50;;
29934;SDS011;19905;53.370;-6.314;2023-02-11T09:45:00;9.93;;;1.23;;
29934;SDS011;19905;53.370;-6.314;2023-02-11T09:47:32;10.38;;;1.40;;
29934;SDS011;19905;53.370;-6.314;2023-02-11T09:50:03;7.30;;;1.38;;
29934;SDS011;19905;53.370;-6.314;2023-02-11T09:52:39;4.53;;;1.13;;
29934;SDS011;19905;53.370;-6.314;2023-02-11T09:55:16;9.18;;;1.40;;
29934;SDS011;19905;53.370;-6.314;2023-02-11T09:57:48;8.35;;;1.20;;
29934;SDS011;19905;53.370;-6.314;2023-02-11T10:00:22;7.68;;;1.77;;
29934;SDS011;19905;53.370;-6.314;2023-02-11T10:06:04;6.40;;;1.48;;
29934;SDS011;19905;53.370;-6.314;2023-02-11T10:08:48;9.13;;;1.38;;
29934;SDS011;19905;53.370;-6.314;2023-02-11T10:11:28;6.75;;;1.30;;
29934;SDS011;19905;53.370;-6.314;2023-02-11T10:14:06;10.32;;;1.48;;
29934;SDS011;19905;53.370;-6.314;2023-02-11T10:16:50;11.30;;;1.40;;
29934;SDS011;19905;53.370;-6.314;2023-02-11T10:19:36;11.15;;;1.50;;
29934;SDS011;19905;53.370;-6.314;2023-02-11T10:22:17;9.15;;;1.58;;
29934;SDS011;19905;53.370;-6.314;2023-02-11T10:24:53;9.52;;;1.48;;
29934;SDS011;19905;53.370;-6.314;2023-02-11T10:27:26;8.95;;;1.65;;
29934;SDS011;19905;53.370;-6.314;2023-02-11T10:30:00;5.53;;;1.42;;
29934;SDS011;19905;53.370;-6.314;2023-02-11T10:32:37;8.70;;;1.60;;
29934;SDS011;19905;53.370;-6.314;2023-02-11T10:35:12;7.45;;;1.30;;
29934;SDS011;19905;53.370;-6.314;2023-02-11T10:37:43;12.10;;;1.50;;
29934;SDS011;19905;53.370;-6.314;2023-02-11T10:40:13;11.55;;;1.90;;
29934;SDS011;19905;53.370;-6.314;2023-02-11T10:42:45;6.93;;;1.40;;
29934;SDS011;19905;53.370;-6.314;2023-02-11T10:45:21;11.32;;;1.70;;
29934;SDS011;19905;53.370;-6.314;2023-02-11T10:47:58;8.68;;;1.20;;
29934;SDS011;19905;53.370;-6.314;2023-02-11T10:50:29;9.98;;;1.40;;
29934;SDS011;19905;53.370;-6.314;2023-02-11T10:53:12;7.40;;;1.20;;
29934;SDS011;19905;53.370;-6.314;2023-02-11T10:55:49;5.00;;;1.30;;
29934;SDS011;19905;53.370;-6.314;2023-02-11T10:58:23;15.18;;;1.90;;
29934;SDS011;19905;53.370;-6.314;2023-02-11T11:00:55;12.13;;;1.70;;
29934;SDS011;19905;53.370;-6.314;2023-02-11T11:03:28;14.98;;;1.95;;
29934;SDS011;19905;53.370;-6.314;2023-02-11T11:06:03;15.63;;;2.10;;
29934;SDS011;19905;53.370;-6.314;2023-02-11T11:08:37;15.75;;;1.90;;
29934;SDS011;19905;53.370;-6.314;2023-02-11T11:11:09;15.18;;;2.00;;
29934;SDS011;19905;53.370;-6.314;2023-02-11T11:13:39;12.60;;;2.10;;
29934;SDS011;19905;53.370;-6.314;2023-02-11T11:16:17;9.60;;;1.83;;
29934;SDS011;19905;53.370;-6.314;2023-02-11T11:18:50;14.80;;;2.08;;
29934;SDS011;19905;53.370;-6.314;2023-02-11T11:21:21;13.45;;;2.40;;
29934;SDS011;19905;53.370;-6.314;2023-02-11T11:23:53;6.90;;;1.60;;
29934;SDS011;19905;53.370;-6.314;2023-02-11T11:26:25;13.50;;;2.95;;
29934;SDS011;19905;53.370;-6.314;2023-02-11T11:28:56;10.90;;;2.15;;
29934;SDS011;19905;53.370;-6.314;2023-02-11T11:31:30;21.40;;;6.07;;
29934;SDS011;19905;53.370;-6.314;2023-02-11T11:34:12;11.23;;;2.80;;
29934;SDS011;19905;53.370;-6.314;2023-02-11T11:36:48;14.98;;;2.72;;
29934;SDS011;19905;53.370;-6.314;2023-02-11T11:39:19;10.32;;;1.92;;
29934;SDS011;19905;53.370;-6.314;2023-02-11T11:41:52;10.27;;;1.85;;
29934;SDS011;19905;53.370;-6.314;2023-02-11T11:44:24;7.07;;;1.50;;
29934;SDS011;19905;53.370;-6.314;2023-02-11T11:52:59;11.32;;;2.40;;
29934;SDS011;19905;53.370;-6.314;2023-02-11T11:55:33;9.70;;;2.30;;
29934;SDS011;19905;53.370;-6.314;2023-02-11T11:58:09;12.48;;;2.03;;
29934;SDS011;19905;53.370;-6.314;2023-02-11T12:00:43;11.25;;;1.90;;
29934;SDS011;19905;53.370;-6.314;2023-02-11T12:03:35;7.10;;;1.58;;
29934;SDS011;19905;53.370;-6.314;2023-02-11T12:06:29;9.25;;;1.50;;
29934;SDS011;19905;53.370;-6.314;2023-02-11T12:09:11;6.55;;;1.50;;
29934;SDS011;19905;53.370;-6.314;2023-02-11T12:11:55;9.43;;;1.80;;
29934;SDS011;19905;53.370;-6.314;2023-02-11T12:14:36;9.27;;;1.42;;
29934;SDS011;19905;53.370;-6.314;2023-02-11T12:17:16;10.23;;;1.70;;
29934;SDS011;19905;53.370;-6.314;2023-02-11T12:20:00;8.20;;;1.02;;
29934;SDS011;19905;53.370;-6.314;2023-02-11T12:22:45;14.73;;;1.40;;
29934;SDS011;19905;53.370;-6.314;2023-02-11T12:25:26;10.80;;;1.90;;
29934;SDS011;19905;53.370;-6.314;2023-02-11T12:28:04;7.88;;;1.38;;
29934;SDS011;19905;53.370;-6.314;2023-02-11T12:33:38;7.00;;;1.20;;
29934;SDS011;19905;53.370;-6.314;2023-02-11T12:36:31;7.72;;;1.30;;
29934;SDS011;19905;53.370;-6.314;2023-02-11T12:39:12;10.02;;;1.20;;
29934;SDS011;19905;53.370;-6.314;2023-02-11T12:41:58;8.75;;;1.30;;
29934;SDS011;19905;53.370;-6.314;2023-02-11T12:45:02;7.60;;;1.40;;
29934;SDS011;19905;53.370;-6.314;2023-02-11T12:47:49;12.57;;;1.40;;
29934;SDS011;19905;53.370;-6.314;2023-02-11T12:50:29;7.47;;;1.52;;
29934;SDS011;19905;53.370;-6.314;2023-02-11T12:53:16;8.43;;;1.52;;
29934;SDS011;19905;53.370;-6.314;2023-02-11T12:55:57;15.82;;;1.50;;
29934;SDS011;19905;53.370;-6.314;2023-02-11T12:58:34;9.55;;;1.60;;
29934;SDS011;19905;53.370;-6.314;2023-02-11T13:01:15;9.38;;;1.30;;
29934;SDS011;19905;53.370;-6.314;2023-02-11T13:03:47;6.50;;;1.27;;
29934;SDS011;19905;53.370;-6.314;2023-02-11T13:06:22;8.05;;;1.42;;
29934;SDS011;19905;53.370;-6.314;2023-02-11T13:08:58;10.30;;;1.60;;
29934;SDS011;19905;53.370;-6.314;2023-02-11T13:11:32;8.15;;;1.50;;
29934;SDS011;19905;53.370;-6.314;2023-02-11T13:14:08;7.07;;;1.23;;
29934;SDS011;19905;53.370;-6.314;2023-02-11T13:16:45;14.38;;;1.33;;
29934;SDS011;19905;53.370;-6.314;2023-02-11T13:19:17;6.68;;;1.20;;
29934;SDS011;19905;53.370;-6.314;2023-02-11T13:22:04;6.32;;;1.30;;
29934;SDS011;19905;53.370;-6.314;2023-02-11T13:24:40;5.90;;;1.13;;
29934;SDS011;19905;53.370;-6.314;2023-02-11T13:27:18;5.38;;;1.10;;
29934;SDS011;19905;53.370;-6.314;2023-02-11T13:33:01;8.63;;;1.60;;
29934;SDS011;19905;53.370;-6.314;2023-02-11T13:38:49;7.57;;;1.40;;
29934;SDS011;19905;53.370;-6.314;2023-02-11T13:41:22;13.00;;;1.80;;
29934;SDS011;19905;53.370;-6.314;2023-02-11T13:43:58;7.15;;;1.10;;
29934;SDS011;19905;53.370;-6.314;2023-02-11T13:49:34;10.15;;;2.13;;
29934;SDS011;19905;53.370;-6.314;2023-02-11T13:52:15;8.75;;;2.10;;
29934;SDS011;19905;53.370;-6.314;2023-02-11T13:54:49;6.68;;;1.75;;
29934;SDS011;19905;53.370;-6.314;2023-02-11T13:57:21;8.13;;;1.08;;
29934;SDS011;19905;53.370;-6.314;2023-02-11T13:59:58;4.78;;;1.27;;
29934;SDS011;19905;53.370;-6.314;2023-02-11T14:02:30;7.45;;;1.30;;
29934;SDS011;19905;53.370;-6.314;2023-02-11T14:05:23;4.13;;;0.88;;
29934;SDS011;19905;53.370;-6.314;2023-02-11T14:08:13;7.60;;;1.33;;
29934;SDS011;19905;53.370;-6.314;2023-02-11T14:11:06;5.93;;;1.33;;
29934;SDS011;19905;53.370;-6.314;2023-02-11T14:19:47;6.22;;;1.13;;
29934;SDS011;19905;53.370;-6.314;2023-02-11T14:22:19;6.07;;;1.42;;
29934;SDS011;19905;53.370;-6.314;2023-02-11T14:24:54;8.57;;;1.70;;
29934;SDS011;19905;53.370;-6.314;2023-02-11T14:27:29;9.05;;;1.80;;
29934;SDS011;19905;53.370;-6.314;2023-02-11T14:36:40;5.55;;;1.65;;
29934;SDS011;19905;53.370;-6.314;2023-02-11T14:39:32;9.73;;;1.40;;
29934;SDS011;19905;53.370;-6.314;2023-02-11T14:42:14;4.70;;;1.55;;
29934;SDS011;19905;53.370;-6.314;2023-02-11T14:44:47;5.85;;;1.70;;
29934;SDS011;19905;53.370;-6.314;2023-02-11T14:47:18;16.00;;;4.18;;
29934;SDS011;19905;53.370;-6.314;2023-02-11T14:49:50;6.72;;;2.15;;
29934;SDS011;19905;53.370;-6.314;2023-02-11T14:52:23;6.82;;;1.48;;
29934;SDS011;19905;53.370;-6.314;2023-02-11T14:55:00;9.48;;;1.67;;
29934;SDS011;19905;53.370;-6.314;2023-02-11T14:57:41;8.65;;;3.30;;
29934;SDS011;19905;53.370;-6.314;2023-02-11T15:00:15;15.30;;;7.20;;
29934;SDS011;19905;53.370;-6.314;2023-02-11T15:02:46;7.60;;;2.72;;
29934;SDS011;19905;53.370;-6.314;2023-02-11T15:05:16;7.55;;;3.13;;
29934;SDS011;19905;53.370;-6.314;2023-02-11T15:07:48;10.00;;;3.38;;
29934;SDS011;19905;53.370;-6.314;2023-02-11T15:10:24;8.40;;;2.38;;
29934;SDS011;19905;53.370;-6.314;2023-02-11T15:12:57;5.78;;;1.70;;
29934;SDS011;19905;53.370;-6.314;2023-02-11T15:15:28;7.35;;;2.05;;
29934;SDS011;19905;53.370;-6.314;2023-02-11T15:18:01;5.53;;;1.70;;
29934;SDS011;19905;53.370;-6.314;2023-02-11T15:20:31;8.75;;;1.88;;
29934;SDS011;19905;53.370;-6.314;2023-02-11T15:23:02;15.45;;;6.10;;
29934;SDS011;19905;53.370;-6.314;2023-02-11T15:25:43;14.85;;;4.65;;
29934;SDS011;19905;53.370;-6.314;2023-02-11T15:28:20;12.60;;;4.25;;
29934;SDS011;19905;53.370;-6.314;2023-02-11T15:30:57;10.20;;;2.13;;
29934;SDS011;19905;53.370;-6.314;2023-02-11T15:33:28;10.32;;;3.92;;
29934;SDS011;19905;53.370;-6.314;2023-02-11T15:35:58;11.07;;;2.53;;
29934;SDS011;19905;53.370;-6.314;2023-02-11T15:38:29;12.77;;;2.90;;
29934;SDS011;19905;53.370;-6.314;2023-02-11T15:41:00;12.43;;;3.03;;
29934;SDS011;19905;53.370;-6.314;2023-02-11T15:43:40;7.88;;;2.25;;
29934;SDS011;19905;53.370;-6.314;2023-02-11T15:46:11;7.32;;;2.25;;
29934;SDS011;19905;53.370;-6.314;2023-02-11T15:48:46;9.85;;;2.30;;